sensor_id;sensor_type;location;lat;lon;timestamp;temperature;humidity
13569;DHT22;6856;51.460;7.158;2022-08-06T00:01:00;18.80;51.00
13569;DHT22;6856;51.460;7.158;2022-08-06T00:03:36;18.80;51.60
13569;DHT22;6856;51.460;7.158;2022-08-06T00:06:10;18.70;51.60
13569;DHT22;6856;51.460;7.158;2022-08-06T00:08:45;18.70;51.70
13569;DHT22;6856;51.460;7.158;2022-08-06T00:11:23;18.70;51.70
13569;DHT22;6856;51.460;7.158;2022-08-06T00:13:58;18.70;51.70
13569;DHT22;6856;51.460;7.158;2022-08-06T00:16:37;18.60;51.40
13569;DHT22;6856;51.460;7.158;2022-08-06T00:19:13;18.60;51.70
13569;DHT22;6856;51.460;7.158;2022-08-06T00:21:52;18.60;51.80
13569;DHT22;6856;51.460;7.158;2022-08-06T00:24:31;18.50;51.70
13569;DHT22;6856;51.460;7.158;2022-08-06T00:27:06;18.50;51.70
13569;DHT22;6856;51.460;7.158;2022-08-06T00:29:46;18.50;51.70
13569;DHT22;6856;51.460;7.158;2022-08-06T00:32:26;18.50;51.80
13569;DHT22;6856;51.460;7.158;2022-08-06T00:35:04;18.40;51.70
13569;DHT22;6856;51.460;7.158;2022-08-06T00:37:39;18.40;51.70
13569;DHT22;6856;51.460;7.158;2022-08-06T00:40:31;18.30;51.70
13569;DHT22;6856;51.460;7.158;2022-08-06T00:43:21;18.30;51.80
13569;DHT22;6856;51.460;7.158;2022-08-06T00:45:56;18.30;52.00
13569;DHT22;6856;51.460;7.158;2022-08-06T00:48:30;18.20;52.10
13569;DHT22;6856;51.460;7.158;2022-08-06T00:51:24;18.20;52.10
13569;DHT22;6856;51.460;7.158;2022-08-06T00:54:19;18.20;51.90
13569;DHT22;6856;51.460;7.158;2022-08-06T00:57:07;18.10;52.10
13569;DHT22;6856;51.460;7.158;2022-08-06T00:59:43;18.10;52.10
13569;DHT22;6856;51.460;7.158;2022-08-06T01:02:23;18.00;52.10
13569;DHT22;6856;51.460;7.158;2022-08-06T01:04:58;18.00;52.20
13569;DHT22;6856;51.460;7.158;2022-08-06T01:07:53;17.90;52.20
13569;DHT22;6856;51.460;7.158;2022-08-06T01:10:30;17.90;52.30
13569;DHT22;6856;51.460;7.158;2022-08-06T01:13:15;17.90;52.20
13569;DHT22;6856;51.460;7.158;2022-08-06T01:16:18;17.80;52.40
13569;DHT22;6856;51.460;7.158;2022-08-06T01:19:28;17.80;52.50
13569;DHT22;6856;51.460;7.158;2022-08-06T01:22:51;17.70;52.70
13569;DHT22;6856;51.460;7.158;2022-08-06T01:25:59;17.70;52.80
13569;DHT22;6856;51.460;7.158;2022-08-06T01:28:57;17.70;52.80
13569;DHT22;6856;51.460;7.158;2022-08-06T01:31:43;17.60;53.30
13569;DHT22;6856;51.460;7.158;2022-08-06T01:34:27;17.60;52.80
13569;DHT22;6856;51.460;7.158;2022-08-06T01:37:13;17.50;52.80
13569;DHT22;6856;51.460;7.158;2022-08-06T01:39:54;17.50;52.70
13569;DHT22;6856;51.460;7.158;2022-08-06T01:42:36;17.40;52.70
13569;DHT22;6856;51.460;7.158;2022-08-06T01:45:19;17.40;52.80
13569;DHT22;6856;51.460;7.158;2022-08-06T01:48:20;17.40;52.90
13569;DHT22;6856;51.460;7.158;2022-08-06T01:51:02;17.30;52.90
13569;DHT22;6856;51.460;7.158;2022-08-06T01:54:02;17.30;53.00
13569;DHT22;6856;51.460;7.158;2022-08-06T01:56:41;17.30;52.90
13569;DHT22;6856;51.460;7.158;2022-08-06T01:59:32;17.20;52.90
13569;DHT22;6856;51.460;7.158;2022-08-06T02:02:13;17.20;53.00
13569;DHT22;6856;51.460;7.158;2022-08-06T02:05:01;17.20;53.10
13569;DHT22;6856;51.460;7.158;2022-08-06T02:07:44;17.10;53.20
13569;DHT22;6856;51.460;7.158;2022-08-06T02:10:43;17.10;53.80
13569;DHT22;6856;51.460;7.158;2022-08-06T02:13:21;17.10;53.30
13569;DHT22;6856;51.460;7.158;2022-08-06T02:16:09;17.00;53.40
13569;DHT22;6856;51.460;7.158;2022-08-06T02:18:47;17.00;53.40
13569;DHT22;6856;51.460;7.158;2022-08-06T02:21:26;16.90;53.40
13569;DHT22;6856;51.460;7.158;2022-08-06T02:24:07;16.90;53.40
13569;DHT22;6856;51.460;7.158;2022-08-06T02:26:44;16.90;53.60
13569;DHT22;6856;51.460;7.158;2022-08-06T02:29:21;16.80;53.70
13569;DHT22;6856;51.460;7.158;2022-08-06T02:32:18;16.80;53.60
13569;DHT22;6856;51.460;7.158;2022-08-06T02:34:56;16.80;53.60
13569;DHT22;6856;51.460;7.158;2022-08-06T02:37:36;16.80;53.70
13569;DHT22;6856;51.460;7.158;2022-08-06T02:40:37;16.70;53.80
13569;DHT22;6856;51.460;7.158;2022-08-06T02:43:22;16.70;53.80
13569;DHT22;6856;51.460;7.158;2022-08-06T02:46:11;16.60;53.80
13569;DHT22;6856;51.460;7.158;2022-08-06T02:48:52;16.60;53.90
13569;DHT22;6856;51.460;7.158;2022-08-06T02:51:39;16.60;53.80
13569;DHT22;6856;51.460;7.158;2022-08-06T02:54:38;16.60;53.80
13569;DHT22;6856;51.460;7.158;2022-08-06T02:57:22;16.50;53.80
13569;DHT22;6856;51.460;7.158;2022-08-06T03:00:22;16.50;53.80
13569;DHT22;6856;51.460;7.158;2022-08-06T03:03:01;16.50;53.90
13569;DHT22;6856;51.460;7.158;2022-08-06T03:05:53;16.40;54.00
13569;DHT22;6856;51.460;7.158;2022-08-06T03:08:34;16.40;54.20
13569;DHT22;6856;51.460;7.158;2022-08-06T03:11:11;16.40;54.20
13569;DHT22;6856;51.460;7.158;2022-08-06T03:13:47;16.40;54.30
13569;DHT22;6856;51.460;7.158;2022-08-06T03:16:22;16.30;54.30
13569;DHT22;6856;51.460;7.158;2022-08-06T03:19:02;16.30;54.30
13569;DHT22;6856;51.460;7.158;2022-08-06T03:21:58;16.30;54.30
13569;DHT22;6856;51.460;7.158;2022-08-06T03:24:37;16.20;54.40
13569;DHT22;6856;51.460;7.158;2022-08-06T03:27:15;16.20;54.50
13569;DHT22;6856;51.460;7.158;2022-08-06T03:29:52;16.20;54.60
13569;DHT22;6856;51.460;7.158;2022-08-06T03:32:33;16.10;54.50
13569;DHT22;6856;51.460;7.158;2022-08-06T03:35:24;15.80;54.40
13569;DHT22;6856;51.460;7.158;2022-08-06T03:38:19;16.10;54.60
13569;DHT22;6856;51.460;7.158;2022-08-06T03:41:03;16.10;54.50
13569;DHT22;6856;51.460;7.158;2022-08-06T03:43:39;16.10;54.70
13569;DHT22;6856;51.460;7.158;2022-08-06T03:46:37;16.00;54.60
13569;DHT22;6856;51.460;7.158;2022-08-06T03:49:30;16.00;54.70
13569;DHT22;6856;51.460;7.158;2022-08-06T03:52:16;16.00;54.80
13569;DHT22;6856;51.460;7.158;2022-08-06T03:55:01;16.00;54.70
13569;DHT22;6856;51.460;7.158;2022-08-06T03:57:40;15.90;54.90
13569;DHT22;6856;51.460;7.158;2022-08-06T04:00:24;15.90;54.80
13569;DHT22;6856;51.460;7.158;2022-08-06T04:03:01;15.90;54.80
13569;DHT22;6856;51.460;7.158;2022-08-06T04:05:40;15.90;54.90
13569;DHT22;6856;51.460;7.158;2022-08-06T04:08:19;15.90;54.90
13569;DHT22;6856;51.460;7.158;2022-08-06T04:11:05;15.80;54.90
13569;DHT22;6856;51.460;7.158;2022-08-06T04:14:02;15.80;55.10
13569;DHT22;6856;51.460;7.158;2022-08-06T04:16:41;15.80;55.00
13569;DHT22;6856;51.460;7.158;2022-08-06T04:19:16;15.80;55.10
13569;DHT22;6856;51.460;7.158;2022-08-06T04:22:07;15.70;55.00
13569;DHT22;6856;51.460;7.158;2022-08-06T04:25:04;15.70;55.20
13569;DHT22;6856;51.460;7.158;2022-08-06T04:27:45;15.70;55.20
13569;DHT22;6856;51.460;7.158;2022-08-06T04:30:28;15.70;55.10
13569;DHT22;6856;51.460;7.158;2022-08-06T04:33:10;15.60;55.00
13569;DHT22;6856;51.460;7.158;2022-08-06T04:35:50;15.60;55.40
13569;DHT22;6856;51.460;7.158;2022-08-06T04:38:46;15.60;55.40
13569;DHT22;6856;51.460;7.158;2022-08-06T04:41:23;15.60;55.50
13569;DHT22;6856;51.460;7.158;2022-08-06T04:44:02;15.60;55.50
13569;DHT22;6856;51.460;7.158;2022-08-06T04:46:46;15.60;55.60
13569;DHT22;6856;51.460;7.158;2022-08-06T04:49:21;15.60;55.70
13569;DHT22;6856;51.460;7.158;2022-08-06T04:52:25;15.60;55.70
13569;DHT22;6856;51.460;7.158;2022-08-06T04:55:20;15.60;56.10
13569;DHT22;6856;51.460;7.158;2022-08-06T04:58:07;15.60;56.00
13569;DHT22;6856;51.460;7.158;2022-08-06T05:00:51;15.60;56.20
13569;DHT22;6856;51.460;7.158;2022-08-06T05:03:44;15.60;56.30
13569;DHT22;6856;51.460;7.158;2022-08-06T05:06:44;15.60;56.50
13569;DHT22;6856;51.460;7.158;2022-08-06T05:09:26;15.60;57.50
13569;DHT22;6856;51.460;7.158;2022-08-06T05:12:19;15.70;57.10
13569;DHT22;6856;51.460;7.158;2022-08-06T05:15:02;15.70;57.60
13569;DHT22;6856;51.460;7.158;2022-08-06T05:17:42;15.70;57.70
13569;DHT22;6856;51.460;7.158;2022-08-06T05:20:21;15.70;57.90
13569;DHT22;6856;51.460;7.158;2022-08-06T05:23:11;15.70;58.10
13569;DHT22;6856;51.460;7.158;2022-08-06T05:25:52;15.80;58.50
13569;DHT22;6856;51.460;7.158;2022-08-06T05:28:28;15.80;58.20
13569;DHT22;6856;51.460;7.158;2022-08-06T05:31:02;15.90;58.30
13569;DHT22;6856;51.460;7.158;2022-08-06T05:33:40;15.90;58.40
13569;DHT22;6856;51.460;7.158;2022-08-06T05:36:16;16.00;58.60
13569;DHT22;6856;51.460;7.158;2022-08-06T05:38:51;16.00;58.70
13569;DHT22;6856;51.460;7.158;2022-08-06T05:41:31;16.10;58.40
13569;DHT22;6856;51.460;7.158;2022-08-06T05:44:10;16.10;58.60
13569;DHT22;6856;51.460;7.158;2022-08-06T05:46:52;16.20;58.70
13569;DHT22;6856;51.460;7.158;2022-08-06T05:49:36;16.20;58.90
13569;DHT22;6856;51.460;7.158;2022-08-06T05:52:40;16.30;58.80
13569;DHT22;6856;51.460;7.158;2022-08-06T05:55:27;16.40;58.80
13569;DHT22;6856;51.460;7.158;2022-08-06T05:58:13;16.40;58.70
13569;DHT22;6856;51.460;7.158;2022-08-06T06:01:04;16.30;58.60
13569;DHT22;6856;51.460;7.158;2022-08-06T06:03:48;16.60;58.80
13569;DHT22;6856;51.460;7.158;2022-08-06T06:06:27;16.70;57.90
13569;DHT22;6856;51.460;7.158;2022-08-06T06:09:05;16.70;58.60
13569;DHT22;6856;51.460;7.158;2022-08-06T06:11:42;16.80;58.70
13569;DHT22;6856;51.460;7.158;2022-08-06T06:14:36;16.80;58.40
13569;DHT22;6856;51.460;7.158;2022-08-06T06:17:30;16.90;58.70
13569;DHT22;6856;51.460;7.158;2022-08-06T06:20:22;17.00;58.70
13569;DHT22;6856;51.460;7.158;2022-08-06T06:23:36;17.10;58.50
13569;DHT22;6856;51.460;7.158;2022-08-06T06:26:24;17.10;58.50
13569;DHT22;6856;51.460;7.158;2022-08-06T06:29:22;17.20;58.10
13569;DHT22;6856;51.460;7.158;2022-08-06T06:32:34;17.30;58.30
13569;DHT22;6856;51.460;7.158;2022-08-06T06:35:27;17.40;58.30
13569;DHT22;6856;51.460;7.158;2022-08-06T06:38:24;17.50;58.20
13569;DHT22;6856;51.460;7.158;2022-08-06T06:41:24;17.60;58.60
13569;DHT22;6856;51.460;7.158;2022-08-06T06:44:14;17.70;58.40
13569;DHT22;6856;51.460;7.158;2022-08-06T06:47:16;17.80;58.30
13569;DHT22;6856;51.460;7.158;2022-08-06T06:50:02;17.90;58.20
13569;DHT22;6856;51.460;7.158;2022-08-06T06:52:50;18.00;58.30
13569;DHT22;6856;51.460;7.158;2022-08-06T06:55:32;18.10;58.10
13569;DHT22;6856;51.460;7.158;2022-08-06T06:58:33;18.20;57.70
13569;DHT22;6856;51.460;7.158;2022-08-06T07:01:19;18.30;58.30
13569;DHT22;6856;51.460;7.158;2022-08-06T07:04:02;18.40;58.10
13569;DHT22;6856;51.460;7.158;2022-08-06T07:06:42;18.50;57.90
13569;DHT22;6856;51.460;7.158;2022-08-06T07:09:30;18.60;57.70
13569;DHT22;6856;51.460;7.158;2022-08-06T07:12:16;18.70;57.90
13569;DHT22;6856;51.460;7.158;2022-08-06T07:14:57;18.90;57.80
13569;DHT22;6856;51.460;7.158;2022-08-06T07:17:36;19.00;57.40
13569;DHT22;6856;51.460;7.158;2022-08-06T07:20:22;19.10;57.10
13569;DHT22;6856;51.460;7.158;2022-08-06T07:23:02;19.20;57.00
13569;DHT22;6856;51.460;7.158;2022-08-06T07:26:01;19.40;57.00
13569;DHT22;6856;51.460;7.158;2022-08-06T07:28:37;19.50;56.80
13569;DHT22;6856;51.460;7.158;2022-08-06T07:31:16;19.60;56.50
13569;DHT22;6856;51.460;7.158;2022-08-06T07:33:54;19.70;56.50
13569;DHT22;6856;51.460;7.158;2022-08-06T07:36:36;19.90;55.70
13569;DHT22;6856;51.460;7.158;2022-08-06T07:39:33;19.90;55.50
13569;DHT22;6856;51.460;7.158;2022-08-06T07:42:13;20.10;55.40
13569;DHT22;6856;51.460;7.158;2022-08-06T07:45:00;20.10;55.40
13569;DHT22;6856;51.460;7.158;2022-08-06T07:47:50;20.30;55.30
13569;DHT22;6856;51.460;7.158;2022-08-06T07:50:31;20.40;55.20
13569;DHT22;6856;51.460;7.158;2022-08-06T07:53:09;20.40;54.70
13569;DHT22;6856;51.460;7.158;2022-08-06T07:55:44;20.60;54.60
13569;DHT22;6856;51.460;7.158;2022-08-06T07:58:24;20.70;54.20
13569;DHT22;6856;51.460;7.158;2022-08-06T08:01:02;20.80;53.40
13569;DHT22;6856;51.460;7.158;2022-08-06T08:03:41;20.80;53.70
13569;DHT22;6856;51.460;7.158;2022-08-06T08:06:54;21.00;53.20
13569;DHT22;6856;51.460;7.158;2022-08-06T08:09:32;21.10;53.20
13569;DHT22;6856;51.460;7.158;2022-08-06T08:12:30;21.20;53.00
13569;DHT22;6856;51.460;7.158;2022-08-06T08:15:09;21.30;52.80
13569;DHT22;6856;51.460;7.158;2022-08-06T08:17:54;21.40;52.70
13569;DHT22;6856;51.460;7.158;2022-08-06T08:20:31;21.50;52.60
13569;DHT22;6856;51.460;7.158;2022-08-06T08:23:14;21.60;52.70
13569;DHT22;6856;51.460;7.158;2022-08-06T08:26:05;21.70;52.60
13569;DHT22;6856;51.460;7.158;2022-08-06T08:28:42;21.90;52.40
13569;DHT22;6856;51.460;7.158;2022-08-06T08:31:18;22.00;51.70
13569;DHT22;6856;51.460;7.158;2022-08-06T08:33:57;22.10;51.30
13569;DHT22;6856;51.460;7.158;2022-08-06T08:36:37;22.20;51.50
13569;DHT22;6856;51.460;7.158;2022-08-06T08:39:12;22.40;51.10
13569;DHT22;6856;51.460;7.158;2022-08-06T08:41:50;22.50;51.10
13569;DHT22;6856;51.460;7.158;2022-08-06T08:44:28;22.60;50.60
13569;DHT22;6856;51.460;7.158;2022-08-06T08:47:05;22.60;50.30
13569;DHT22;6856;51.460;7.158;2022-08-06T08:49:46;22.70;49.90
13569;DHT22;6856;51.460;7.158;2022-08-06T08:52:32;22.80;49.40
13569;DHT22;6856;51.460;7.158;2022-08-06T08:55:09;22.90;49.60
13569;DHT22;6856;51.460;7.158;2022-08-06T08:58:07;22.90;49.90
13569;DHT22;6856;51.460;7.158;2022-08-06T09:01:02;23.00;49.60
13569;DHT22;6856;51.460;7.158;2022-08-06T09:04:02;23.10;49.20
13569;DHT22;6856;51.460;7.158;2022-08-06T09:06:37;23.20;48.50
13569;DHT22;6856;51.460;7.158;2022-08-06T09:09:15;23.30;48.50
13569;DHT22;6856;51.460;7.158;2022-08-06T09:11:56;23.40;47.80
13569;DHT22;6856;51.460;7.158;2022-08-06T09:14:51;23.40;48.60
13569;DHT22;6856;51.460;7.158;2022-08-06T09:17:25;23.60;46.90
13569;DHT22;6856;51.460;7.158;2022-08-06T09:20:22;23.60;46.60
13569;DHT22;6856;51.460;7.158;2022-08-06T09:22:58;23.70;47.40
13569;DHT22;6856;51.460;7.158;2022-08-06T09:25:40;23.80;46.60
13569;DHT22;6856;51.460;7.158;2022-08-06T09:28:34;23.60;46.30
13569;DHT22;6856;51.460;7.158;2022-08-06T09:31:11;23.90;46.10
13569;DHT22;6856;51.460;7.158;2022-08-06T09:34:04;24.00;46.00
13569;DHT22;6856;51.460;7.158;2022-08-06T09:36:59;24.10;46.20
13569;DHT22;6856;51.460;7.158;2022-08-06T09:39:38;24.20;46.00
13569;DHT22;6856;51.460;7.158;2022-08-06T09:42:39;24.30;45.80
13569;DHT22;6856;51.460;7.158;2022-08-06T09:45:16;24.40;44.70
13569;DHT22;6856;51.460;7.158;2022-08-06T09:48:12;24.60;45.20
13569;DHT22;6856;51.460;7.158;2022-08-06T09:50:53;24.50;44.90
13569;DHT22;6856;51.460;7.158;2022-08-06T09:53:27;24.60;44.90
13569;DHT22;6856;51.460;7.158;2022-08-06T09:56:22;24.70;45.00
13569;DHT22;6856;51.460;7.158;2022-08-06T09:59:02;24.70;44.80
13569;DHT22;6856;51.460;7.158;2022-08-06T10:01:42;24.80;44.80
13569;DHT22;6856;51.460;7.158;2022-08-06T10:04:24;24.80;44.50
13569;DHT22;6856;51.460;7.158;2022-08-06T10:07:10;24.90;44.10
13569;DHT22;6856;51.460;7.158;2022-08-06T10:09:52;24.90;43.70
13569;DHT22;6856;51.460;7.158;2022-08-06T10:12:28;24.90;43.40
13569;DHT22;6856;51.460;7.158;2022-08-06T10:15:07;24.90;43.50
13569;DHT22;6856;51.460;7.158;2022-08-06T10:17:45;24.90;43.60
13569;DHT22;6856;51.460;7.158;2022-08-06T10:20:24;25.00;43.00
13569;DHT22;6856;51.460;7.158;2022-08-06T10:23:08;25.00;43.60
13569;DHT22;6856;51.460;7.158;2022-08-06T10:25:44;25.10;44.10
13569;DHT22;6856;51.460;7.158;2022-08-06T10:28:20;25.20;43.10
13569;DHT22;6856;51.460;7.158;2022-08-06T10:31:03;25.30;43.40
13569;DHT22;6856;51.460;7.158;2022-08-06T10:33:44;25.50;42.80
13569;DHT22;6856;51.460;7.158;2022-08-06T10:36:31;25.60;42.50
13569;DHT22;6856;51.460;7.158;2022-08-06T10:39:09;25.70;42.10
13569;DHT22;6856;51.460;7.158;2022-08-06T10:42:05;25.70;42.30
13569;DHT22;6856;51.460;7.158;2022-08-06T10:44:53;25.80;42.90
13569;DHT22;6856;51.460;7.158;2022-08-06T10:47:29;25.90;43.40
13569;DHT22;6856;51.460;7.158;2022-08-06T10:50:26;26.10;42.10
13569;DHT22;6856;51.460;7.158;2022-08-06T10:53:21;26.20;41.40
13569;DHT22;6856;51.460;7.158;2022-08-06T10:56:17;26.20;41.60
13569;DHT22;6856;51.460;7.158;2022-08-06T10:58:57;26.30;41.40
13569;DHT22;6856;51.460;7.158;2022-08-06T11:01:39;26.30;41.80
13569;DHT22;6856;51.460;7.158;2022-08-06T11:04:49;26.30;41.60
13569;DHT22;6856;51.460;7.158;2022-08-06T11:07:52;26.40;41.20
13569;DHT22;6856;51.460;7.158;2022-08-06T11:10:57;26.50;41.00
13569;DHT22;6856;51.460;7.158;2022-08-06T11:14:03;26.60;41.30
13569;DHT22;6856;51.460;7.158;2022-08-06T11:16:59;26.70;40.20
13569;DHT22;6856;51.460;7.158;2022-08-06T11:19:43;26.80;40.80
13569;DHT22;6856;51.460;7.158;2022-08-06T11:22:37;26.90;41.70
13569;DHT22;6856;51.460;7.158;2022-08-06T11:25:40;27.00;41.30
13569;DHT22;6856;51.460;7.158;2022-08-06T11:28:16;27.20;40.10
13569;DHT22;6856;51.460;7.158;2022-08-06T11:30:53;27.30;39.90
13569;DHT22;6856;51.460;7.158;2022-08-06T11:34:00;27.20;39.80
13569;DHT22;6856;51.460;7.158;2022-08-06T11:36:54;27.20;39.60
13569;DHT22;6856;51.460;7.158;2022-08-06T11:40:07;27.10;39.50
13569;DHT22;6856;51.460;7.158;2022-08-06T11:42:43;27.10;39.40
13569;DHT22;6856;51.460;7.158;2022-08-06T11:45:22;27.10;39.90
13569;DHT22;6856;51.460;7.158;2022-08-06T11:48:16;27.10;39.60
13569;DHT22;6856;51.460;7.158;2022-08-06T11:54:18;27.30;38.70
13569;DHT22;6856;51.460;7.158;2022-08-06T11:57:23;27.40;38.60
13569;DHT22;6856;51.460;7.158;2022-08-06T12:00:22;27.40;38.70
13569;DHT22;6856;51.460;7.158;2022-08-06T12:02:57;27.30;38.10
13569;DHT22;6856;51.460;7.158;2022-08-06T12:05:50;27.30;38.80
13569;DHT22;6856;51.460;7.158;2022-08-06T12:08:29;27.20;38.80
13569;DHT22;6856;51.460;7.158;2022-08-06T12:11:28;27.20;39.10
13569;DHT22;6856;51.460;7.158;2022-08-06T12:17:22;27.10;38.60
13569;DHT22;6856;51.460;7.158;2022-08-06T12:20:29;27.20;39.10
13569;DHT22;6856;51.460;7.158;2022-08-06T12:23:13;27.20;37.80
13569;DHT22;6856;51.460;7.158;2022-08-06T12:25:53;27.30;37.90
13569;DHT22;6856;51.460;7.158;2022-08-06T12:28:33;27.40;37.90
13569;DHT22;6856;51.460;7.158;2022-08-06T12:31:08;27.40;37.50
13569;DHT22;6856;51.460;7.158;2022-08-06T12:34:03;27.40;37.50
13569;DHT22;6856;51.460;7.158;2022-08-06T12:36:37;27.30;37.80
13569;DHT22;6856;51.460;7.158;2022-08-06T12:39:16;27.30;37.60
13569;DHT22;6856;51.460;7.158;2022-08-06T12:42:22;27.20;37.20
13569;DHT22;6856;51.460;7.158;2022-08-06T12:45:22;27.10;37.10
13569;DHT22;6856;51.460;7.158;2022-08-06T12:48:17;27.10;37.10
13569;DHT22;6856;51.460;7.158;2022-08-06T12:51:02;27.10;37.60
13569;DHT22;6856;51.460;7.158;2022-08-06T12:53:48;27.10;37.80
